EW1867 Weather Reports


Display with metric or nautical units.
time (UTC)temp
F
wind
direction
speed
MPH
gust
MPH
rain 1hr
in
rain 24hr
in
rain mn
in
humidity
%
barometer
mb
20210926072521 62 0 0.0 3.0 0.00 0.00 0.00 69 1013.1
20210926064143 64 0 0.0 1.0 0.00 0.00 0.00 69 1012.7
20210926063121 65 0 0.0 1.0 0.00 0.00 0.00 67 1012.8
20210926062439 65 0 0.0 1.0 0.00 0.00 0.00 67 1012.8
20210926060421 66 0 0.0 1.0 0.00 0.00 0.00 67 1012.5
20210926055521 67 0 0.0 1.0 0.00 0.00 0.00 66 1012.5
20210926054621 67 0 0.0 1.0 0.00 0.00 0.00 66 1012.5
20210926052821 68 0 0.0 2.0 0.00 0.00 0.00 64 1012.2
20210926051021 69 0 0.0 1.0 0.00 0.00 0.00 63 1011.9
20210926050121 69 0 0.0 1.0 0.00 0.00 0.00 62 1011.9
20210926045221 70 0 0.0 1.0 0.00 0.00 0.00 61 1011.8
20210926044321 70 0 0.0 1.0 0.00 0.00 0.00 60 1011.7
20210926043421 71 0 0.0 2.0 0.00 0.00 0.00 60 1011.8
20210926041622 72 0 0.0 1.0 0.00 0.00 0.00 60 1011.6
20210926035821 73 0 0.0 2.0 0.00 0.00 0.00 58 1011.5
20210926034921 73 0 0.0 1.0 0.00 0.00 0.00 58 1011.3
20210926034021 74 0 0.0 0.0 0.00 0.00 0.00 57 1011.2
20210926032221 75 0 0.0 0.0 0.00 0.00 0.00 55 1011.0
20210926031321 76 0 0.0 0.0 0.00 0.00 0.00 53 1011.2
20210926030421 76 0 0.0 1.0 0.00 0.00 0.00 52 1011.1
20210926025521 77 0 0.0 1.0 0.00 0.00 0.00 51 1010.8
20210926022821 79 0 0.0 0.0 0.00 0.00 0.00 47 1010.8
20210926020121 81 0 0.0 1.0 0.00 0.00 0.00 45 1010.5
20210926015221 82 0 0.0 3.0 0.00 0.00 0.00 43 1010.5
20210926014321 83 0 0.0 1.0 0.00 0.00 0.00 43 1010.5
20210926013421 84 0 0.0 1.0 0.00 0.00 0.00 40 1010.4
20210926004921 88 0 0.0 1.0 0.00 0.00 0.00 35 1010.4
20210926003121 90 0 0.0 1.0 0.00 0.00 0.00 33 1010.4
20210926002221 90 0 0.0 3.0 0.00 0.00 0.00 33 1010.4
20210926001321 90 134 0.0 2.0 0.00 0.00 0.00 33 1010.4
20210926000423 91 216 1.0 4.0 0.00 0.00 0.00 32 1010.6
20210925235521 91 222 1.0 4.0 0.00 0.00 0.00 31 1010.6
20210925234621 91 226 1.0 4.0 0.00 0.00 0.00 32 1010.7
20210925232821 91 233 1.0 3.0 0.00 0.00 0.00 33 1010.7
20210925231021 91 232 1.0 7.0 0.00 0.00 0.00 32 1010.9
20210925230121 91 242 1.0 4.0 0.00 0.00 0.00 33 1010.8
20210925225221 92 234 1.0 3.0 0.00 0.00 0.00 32 1010.9
20210925214021 90 203 0.0 3.0 0.00 0.00 0.00 33 1011.6
20210925213121 90 115 1.0 1.0 0.00 0.00 0.00 32 1011.7
20210925212221 89 219 1.0 5.0 0.00 0.00 0.00 34 1012.0
20210925205521 88 235 2.0 5.0 0.00 0.00 0.00 35 1012.3
20210925204621 88 226 2.0 4.0 0.00 0.00 0.00 35 1012.4
20210925201921 86 235 2.0 4.0 0.00 0.00 0.00 38 1012.8
20210925200121 85 233 2.0 4.0 0.00 0.00 0.00 40 1013.0
20210925195221 85 227 1.0 5.0 0.00 0.00 0.00 40 1013.1
20210925194321 85 211 1.0 3.0 0.00 0.00 0.00 40 1013.2
20210925193421 84 236 1.0 5.0 0.00 0.00 0.00 41 1013.4
20210925192521 84 225 1.0 4.0 0.00 0.00 0.00 41 1013.4
20210925185821 82 232 1.0 3.0 0.00 0.00 0.00 42 1013.5
20210925184921 81 186 1.0 3.0 0.00 0.00 0.00 43 1013.6
20210925184021 80 132 1.0 3.0 0.00 0.00 0.00 44 1013.6
20210925181321 78 198 1.0 2.0 0.00 0.00 0.00 49 1013.6
20210925180421 77 232 1.0 3.0 0.00 0.00 0.00 49 1013.7
20210925175521 77 226 0.0 2.0 0.00 0.00 0.00 51 1013.8
20210925171921 75 0 0.0 3.0 0.00 0.00 0.00 53 1013.9
20210925171021 74 233 1.0 1.0 0.00 0.00 0.00 55 1013.9
20210925170121 73 224 1.0 3.0 0.00 0.00 0.00 56 1014.0
20210925165221 72 235 0.0 4.0 0.00 0.00 0.00 56 1013.9
20210925164321 72 267 0.0 2.0 0.00 0.00 0.00 57 1013.8
20210925163421 71 90 1.0 4.0 0.00 0.00 0.00 57 1013.9
20210925161621 70 0 0.0 2.0 0.00 0.00 0.00 59 1013.6
20210925160721 69 0 0.0 2.0 0.00 0.00 0.00 61 1013.6
20210925154021 66 0 0.0 1.0 0.00 0.00 0.00 66 1013.6
20210925153121 66 0 0.0 1.0 0.00 0.00 0.00 66 1013.5
20210925152221 65 0 0.0 1.0 0.00 0.00 0.00 67 1013.6
20210925151321 64 0 0.0 1.0 0.00 0.00 0.00 68 1013.7
20210925145521 62 0 0.0 0.0 0.00 0.00 0.00 71 1013.6
20210925142821 62 0 0.0 1.0 0.00 0.00 0.00 71 1013.5
20210925141921 61 0 0.0 1.0 0.00 0.00 0.00 72 1013.5
20210925135221 62 0 0.0 2.0 0.00 0.00 0.00 72 1013.3
20210925134321 61 0 0.0 2.0 0.00 0.00 0.00 72 1013.2
20210925132521 61 107 0.0 1.0 0.00 0.00 0.00 72 1013.1
20210925131621 61 103 1.0 3.0 0.00 0.00 0.00 72 1013.0
20210925130721 61 107 0.0 5.0 0.00 0.00 0.00 72 1013.1
20210925125821 62 117 1.0 5.0 0.00 0.00 0.00 72 1012.9
20210925124921 62 103 1.0 4.0 0.00 0.00 0.00 71 1012.9
20210925123121 63 92 0.0 3.0 0.00 0.00 0.00 67 1013.0
20210925121321 64 0 0.0 2.0 0.00 0.00 0.00 64 1012.9
20210925115521 64 0 0.0 2.0 0.00 0.00 0.00 63 1012.7
20210925114621 64 0 0.0 1.0 0.00 0.00 0.00 61 1012.7
20210925113721 65 0 0.0 3.0 0.00 0.00 0.00 60 1012.6
20210925112821 65 0 0.0 4.0 0.00 0.00 0.00 61 1012.4
20210925111021 65 96 0.0 2.0 0.00 0.00 0.00 59 1012.1
20210925110121 65 0 0.0 3.0 0.00 0.00 0.00 59 1012.1
20210925105221 65 0 0.0 2.0 0.00 0.00 0.00 60 1012.0
20210925103421 66 0 0.0 4.0 0.00 0.00 0.00 60 1012.0
20210925102521 66 0 0.0 4.0 0.00 0.00 0.00 59 1012.0
20210925094022 67 106 0.0 3.0 0.00 0.00 0.00 58 1012.1
20210925092222 67 0 0.0 1.0 0.00 0.00 0.00 58 1012.2
20210925091321 67 0 0.0 1.0 0.00 0.00 0.00 57 1012.0
20210925090422 68 0 0.0 2.0 0.00 0.00 0.00 57 1012.1
20210925085521 68 0 0.0 2.0 0.00 0.00 0.00 56 1011.8
20210925084621 68 0 0.0 2.0 0.00 0.00 0.00 57 1011.8
20210925083721 68 0 0.0 4.0 0.00 0.00 0.00 56 1011.9
20210925081022 68 0 0.0 2.0 0.00 0.00 0.00 56 1011.9
20210925074323 69 0 0.0 0.0 0.00 0.00 0.00 56 1011.8
20210925073421 70 0 0.0 0.0 0.00 0.00 0.00 55 1011.8